createdAt,value
2019-04-05T00:02:23.692Z,6.22
2019-04-05T00:04:49.635Z,6.21
2019-04-05T00:07:15.473Z,6.28
2019-04-05T00:09:41.313Z,6.38
2019-04-05T00:12:07.155Z,6.41
2019-04-05T00:14:33.007Z,6.42
2019-04-05T00:16:58.816Z,6.47
2019-04-05T00:19:24.662Z,6.31
2019-04-05T00:21:50.485Z,6.44
2019-04-05T00:24:16.331Z,6.49
2019-04-05T00:26:42.158Z,6.40
2019-04-05T00:29:08.014Z,6.48
2019-04-05T00:31:33.832Z,6.36
2019-04-05T00:33:59.673Z,6.39
2019-04-05T00:36:25.541Z,6.60
2019-04-05T00:38:51.361Z,6.49
2019-04-05T00:41:17.233Z,6.64
2019-04-05T00:43:43.052Z,6.33
2019-04-05T00:46:08.897Z,6.26
2019-04-05T00:48:34.727Z,6.53
2019-04-05T00:51:00.684Z,6.44
2019-04-05T00:53:26.743Z,6.66
2019-04-05T00:55:52.694Z,6.63
2019-04-05T00:58:18.557Z,6.69
2019-04-05T01:00:44.494Z,6.63
2019-04-05T01:03:13.060Z,6.50
2019-04-05T01:05:38.089Z,6.57
2019-04-05T01:08:03.963Z,6.63
2019-04-05T01:10:29.812Z,6.75
2019-04-05T01:12:55.894Z,6.77
2019-04-05T01:15:21.746Z,6.76
2019-04-05T01:17:47.650Z,6.74
2019-04-05T01:20:13.507Z,6.61
2019-04-05T01:22:39.931Z,6.63
2019-04-05T01:25:05.985Z,6.79
2019-04-05T01:27:33.230Z,6.79
2019-04-05T01:29:59.182Z,6.73
2019-04-05T01:32:25.007Z,6.68
2019-04-05T01:34:50.873Z,6.66
2019-04-05T01:37:16.798Z,6.65
2019-04-05T01:39:42.665Z,6.63
2019-04-05T01:42:08.523Z,6.54
2019-04-05T01:44:34.371Z,6.36
2019-04-05T01:47:00.217Z,6.60
2019-04-05T01:49:26.073Z,6.61
2019-04-05T01:51:51.917Z,6.59
2019-04-05T01:54:17.769Z,6.63
2019-04-05T01:56:43.618Z,6.64
2019-04-05T01:59:09.451Z,6.57
2019-04-05T02:01:35.332Z,6.55
2019-04-05T02:04:01.184Z,6.40
2019-04-05T02:06:27.143Z,6.41
2019-04-05T02:08:54.623Z,6.42
2019-04-05T02:11:20.553Z,6.41
2019-04-05T02:13:48.345Z,6.41
2019-04-05T02:16:14.185Z,6.20
2019-04-05T02:18:40.035Z,6.52
2019-04-05T02:21:06.174Z,6.44
2019-04-05T02:23:32.038Z,6.40
2019-04-05T02:25:57.891Z,6.42
2019-04-05T02:28:25.440Z,6.53
2019-04-05T02:30:51.469Z,6.55
2019-04-05T02:33:17.425Z,6.51
2019-04-05T02:35:43.255Z,6.54
2019-04-05T02:38:09.103Z,6.58
2019-04-05T02:40:36.737Z,6.53
2019-04-05T02:43:02.979Z,6.54
2019-04-05T02:45:31.017Z,6.52
2019-04-05T02:48:00.681Z,6.51
2019-04-05T02:50:28.434Z,6.56
2019-04-05T02:52:57.277Z,6.43
2019-04-05T02:55:24.450Z,6.43
2019-04-05T02:57:50.805Z,6.42
2019-04-05T03:00:16.754Z,6.48
2019-04-05T03:02:42.998Z,6.48
2019-04-05T03:05:09.034Z,6.48
2019-04-05T03:07:34.896Z,6.38
2019-04-05T03:10:02.664Z,6.38
2019-04-05T03:12:28.698Z,6.38
2019-04-05T03:14:54.636Z,6.38
2019-04-05T03:17:20.779Z,6.40
2019-04-05T03:19:49.415Z,6.58
2019-04-05T03:22:15.378Z,6.52
2019-04-05T03:24:42.834Z,6.52
2019-04-05T03:27:12.512Z,6.59
2019-04-05T03:29:38.455Z,6.52
2019-04-05T03:32:04.528Z,6.53
2019-04-05T03:34:30.434Z,6.68
2019-04-05T03:36:56.400Z,6.58
2019-04-05T03:39:22.448Z,6.52
2019-04-05T03:41:48.285Z,6.47
2019-04-05T03:44:14.213Z,6.27
2019-04-05T03:46:55.464Z,6.17
2019-04-05T03:49:08.202Z,6.38
2019-04-05T03:51:34.164Z,6.38
2019-04-05T03:54:00.121Z,6.36
2019-04-05T03:56:26.121Z,6.37
2019-04-05T03:58:52.072Z,6.36
2019-04-05T04:01:17.999Z,6.35
2019-04-05T04:03:43.852Z,6.29
2019-04-05T04:06:09.786Z,6.26
2019-04-05T04:08:35.847Z,6.29
2019-04-05T04:11:01.796Z,6.23
2019-04-05T04:13:27.757Z,6.23
2019-04-05T04:15:53.926Z,6.28
2019-04-05T04:18:19.984Z,6.43
2019-04-05T04:20:50.099Z,6.36
2019-04-05T04:23:16.842Z,6.74
2019-04-05T04:25:43.119Z,6.76
2019-04-05T04:28:08.974Z,6.76
2019-04-05T04:30:35.606Z,6.67
2019-04-05T04:33:02.252Z,6.44
2019-04-05T04:35:28.325Z,6.44
2019-04-05T04:37:54.269Z,6.32
2019-04-05T04:40:20.228Z,6.32
2019-04-05T04:42:46.072Z,6.31
2019-04-05T04:45:12.984Z,6.37
2019-04-05T04:47:39.245Z,6.37
2019-04-05T04:50:05.903Z,6.36
2019-04-05T04:52:32.076Z,6.39
2019-04-05T04:54:58.022Z,6.38
2019-04-05T04:57:24.242Z,6.38
2019-04-05T04:59:50.275Z,6.46
2019-04-05T05:02:16.201Z,6.35
2019-04-05T05:04:42.269Z,6.29
2019-04-05T05:07:08.228Z,6.22
2019-04-05T05:09:34.174Z,6.08
2019-04-05T05:12:00.190Z,6.13
2019-04-05T05:14:26.150Z,6.20
2019-04-05T05:16:52.213Z,6.15
2019-04-05T05:19:18.293Z,6.32
2019-04-05T05:21:44.322Z,6.28
2019-04-05T05:24:10.306Z,6.21
2019-04-05T05:26:36.313Z,6.14
2019-04-05T05:29:02.270Z,6.18
2019-04-05T05:31:28.423Z,6.16
2019-04-05T05:33:54.448Z,6.16
2019-04-05T05:36:20.328Z,6.16
2019-04-05T05:38:46.261Z,6.15
2019-04-05T05:41:12.309Z,6.11
2019-04-05T05:43:38.152Z,6.13
2019-04-05T05:46:04.229Z,6.09
2019-04-05T05:48:30.965Z,6.15
2019-04-05T05:50:57.009Z,6.17
2019-04-05T05:53:22.874Z,6.17
2019-04-05T05:55:48.729Z,6.19
2019-04-05T05:58:14.564Z,6.22
2019-04-05T06:00:40.414Z,6.27
2019-04-05T06:03:06.543Z,6.35
2019-04-05T06:05:33.195Z,6.41
2019-04-05T06:08:01.006Z,6.40
2019-04-05T06:10:26.776Z,6.38
2019-04-05T06:12:52.595Z,6.38
2019-04-05T06:15:18.440Z,6.41
2019-04-05T06:17:44.289Z,6.42
2019-04-05T06:20:10.551Z,6.44
2019-04-05T06:22:36.401Z,6.35
2019-04-05T06:25:04.187Z,6.39
2019-04-05T06:27:30.046Z,6.46
2019-04-05T06:29:55.922Z,6.60
2019-04-05T06:32:21.768Z,6.63
2019-04-05T06:34:47.616Z,6.55
2019-04-05T06:37:13.472Z,6.58
2019-04-05T06:39:39.309Z,6.48
2019-04-05T06:42:05.273Z,6.63
2019-04-05T06:44:31.089Z,6.62
2019-04-05T06:46:56.961Z,6.59
2019-04-05T06:49:22.797Z,6.58
2019-04-05T06:51:48.651Z,6.51
2019-04-05T06:54:14.536Z,6.60
2019-04-05T06:56:40.413Z,6.60
2019-04-05T06:59:06.246Z,6.60
2019-04-05T07:01:32.162Z,6.73
2019-04-05T07:03:59.920Z,6.86
2019-04-05T07:06:25.776Z,6.79
2019-04-05T07:08:53.998Z,6.79
2019-04-05T07:11:19.373Z,6.97
2019-04-05T07:13:45.331Z,6.97
2019-04-05T07:16:11.335Z,7.00
2019-04-05T07:18:37.232Z,7.06
2019-04-05T07:21:03.172Z,7.06
2019-04-05T07:23:29.041Z,6.96
2019-04-05T07:25:54.884Z,7.01
2019-04-05T07:28:20.711Z,6.77
2019-04-05T07:30:46.565Z,6.97
2019-04-05T07:33:12.411Z,6.93
2019-04-05T07:35:40.735Z,7.06
2019-04-05T07:38:09.622Z,7.04
2019-04-05T07:40:35.906Z,7.08
2019-04-05T07:43:01.753Z,7.08
2019-04-05T07:45:27.591Z,7.20
2019-04-05T07:47:53.585Z,7.27
2019-04-05T07:50:19.374Z,7.43
2019-04-05T07:52:45.207Z,7.22
2019-04-05T07:55:11.151Z,7.26
2019-04-05T07:57:36.995Z,7.32
2019-04-05T08:00:07.068Z,7.13
2019-04-05T08:02:32.953Z,7.19
2019-04-05T08:04:58.801Z,7.44
2019-04-05T08:07:27.950Z,7.49
2019-04-05T08:09:54.122Z,7.17
2019-04-05T08:12:20.166Z,7.25
2019-04-05T08:14:46.133Z,7.24
2019-04-05T08:17:11.957Z,7.24
2019-04-05T08:19:37.808Z,7.07
2019-04-05T08:22:03.857Z,7.20
2019-04-05T08:24:29.710Z,7.46
2019-04-05T08:26:55.558Z,7.24
2019-04-05T08:29:21.414Z,7.24
2019-04-05T08:31:47.251Z,7.42
2019-04-05T08:34:13.141Z,7.52
2019-04-05T08:36:38.977Z,7.79
2019-04-05T08:39:06.600Z,7.93
2019-04-05T08:41:32.475Z,7.92
2019-04-05T08:43:58.343Z,7.83
2019-04-05T08:46:24.192Z,7.94
2019-04-05T08:48:52.285Z,7.93
2019-04-05T08:51:17.817Z,8.00
2019-04-05T08:53:43.638Z,8.00
2019-04-05T08:56:09.537Z,8.04
2019-04-05T08:58:35.382Z,8.01
2019-04-05T09:01:01.246Z,7.80
2019-04-05T09:03:27.081Z,7.87
2019-04-05T09:05:52.956Z,7.87
2019-04-05T09:08:21.293Z,7.87
2019-04-05T09:10:46.651Z,7.96
2019-04-05T09:13:12.499Z,7.70
2019-04-05T09:15:38.360Z,7.67
2019-04-05T09:18:04.287Z,7.80
2019-04-05T09:20:30.139Z,7.86
2019-04-05T09:22:55.971Z,7.81
2019-04-05T09:25:21.846Z,7.89
2019-04-05T09:27:47.685Z,8.02
2019-04-05T09:30:13.726Z,8.01
2019-04-05T09:32:39.602Z,7.82
2019-04-05T09:35:05.551Z,7.82
2019-04-05T09:37:31.393Z,8.01
2019-04-05T09:39:57.208Z,8.18
2019-04-05T09:42:23.078Z,8.35
2019-04-05T09:44:48.987Z,8.31
2019-04-05T09:47:14.817Z,8.34
2019-04-05T09:49:40.655Z,8.58
2019-04-05T09:52:06.616Z,8.41
2019-04-05T09:54:32.472Z,8.28
2019-04-05T09:56:58.321Z,8.49
2019-04-05T09:59:24.182Z,8.37
2019-04-05T10:01:50.030Z,8.42
2019-04-05T10:04:15.989Z,8.40
2019-04-05T10:06:42.077Z,8.29
2019-04-05T10:09:08.045Z,8.36
2019-04-05T10:11:33.894Z,8.36
2019-04-05T10:13:59.761Z,8.27
2019-04-05T10:16:25.619Z,8.16
2019-04-05T10:18:51.691Z,7.99
2019-04-05T10:21:17.541Z,8.19
2019-04-05T10:23:43.375Z,8.19
2019-04-05T10:26:09.236Z,8.21
2019-04-05T10:28:35.059Z,8.24
2019-04-05T10:31:00.909Z,8.27
2019-04-05T10:33:26.738Z,8.29
2019-04-05T10:35:52.599Z,8.42
2019-04-05T10:38:18.453Z,8.55
2019-04-05T10:40:44.309Z,8.25
2019-04-05T10:43:10.239Z,8.48
2019-04-05T10:45:36.071Z,8.37
2019-04-05T10:48:02.129Z,8.43
2019-04-05T10:50:27.952Z,8.46
2019-04-05T10:52:53.813Z,8.60
2019-04-05T10:55:19.777Z,8.55
2019-04-05T10:57:45.605Z,8.74
2019-04-05T11:00:13.955Z,8.68
2019-04-05T11:02:39.854Z,8.44
2019-04-05T11:05:05.798Z,8.44
2019-04-05T11:07:31.727Z,8.47
2019-04-05T11:09:57.589Z,8.63
2019-04-05T11:12:23.430Z,9.05
2019-04-05T11:14:49.287Z,9.55
2019-04-05T11:17:15.118Z,9.56
2019-04-05T11:19:40.996Z,9.26
2019-04-05T11:22:06.920Z,9.39
2019-04-05T11:24:32.748Z,9.92
2019-04-05T11:26:58.612Z,9.95
2019-04-05T11:29:24.463Z,10.18
2019-04-05T11:31:56.811Z,10.73
2019-04-05T11:34:18.066Z,10.73
2019-04-05T11:36:44.008Z,10.73
2019-04-05T11:39:09.832Z,10.99
2019-04-05T11:41:36.217Z,11.03
2019-04-05T11:44:02.082Z,11.23
2019-04-05T11:46:29.207Z,11.19
2019-04-05T11:48:55.154Z,11.20
2019-04-05T11:51:20.989Z,11.20
2019-04-05T11:53:46.858Z,10.97
2019-04-05T11:56:14.788Z,10.68
2019-04-05T11:58:42.350Z,10.64
2019-04-05T12:01:10.084Z,10.46
2019-04-05T12:03:36.029Z,10.51
2019-04-05T12:06:01.882Z,10.13
2019-04-05T12:08:27.747Z,10.53
2019-04-05T12:10:53.604Z,10.53
2019-04-05T12:13:19.469Z,10.54
2019-04-05T12:15:45.326Z,10.94
2019-04-05T12:18:11.163Z,11.16
2019-04-05T12:20:48.018Z,11.20
2019-04-05T12:23:04.963Z,10.95
2019-04-05T12:25:31.784Z,11.50
2019-04-05T12:28:06.239Z,11.58
2019-04-05T12:30:27.227Z,11.99
2019-04-05T12:32:53.366Z,11.96
2019-04-05T12:35:21.356Z,11.44
2019-04-05T12:37:50.383Z,11.96
2019-04-05T12:40:16.766Z,12.08
2019-04-05T12:42:43.562Z,11.92
2019-04-05T12:45:09.660Z,12.38
2019-04-05T12:47:35.515Z,12.95
2019-04-05T12:50:01.342Z,12.61
2019-04-05T12:52:28.005Z,12.70
2019-04-05T12:54:54.936Z,12.29
2019-04-05T12:57:20.859Z,12.53
2019-04-05T12:59:46.724Z,12.59
2019-04-05T13:02:14.057Z,12.35
2019-04-05T13:04:40.326Z,11.89
2019-04-05T13:07:06.665Z,11.35
2019-04-05T13:09:32.611Z,11.28
2019-04-05T13:11:58.451Z,11.33
2019-04-05T13:14:26.158Z,11.17
2019-04-05T13:16:52.089Z,11.44
2019-04-05T13:19:17.940Z,11.44
2019-04-05T13:21:43.791Z,11.62
2019-04-05T13:24:10.205Z,11.88
2019-04-05T13:26:36.961Z,11.71
2019-04-05T13:29:03.220Z,12.03
2019-04-05T13:31:29.041Z,12.17
2019-04-05T13:33:55.565Z,12.00
2019-04-05T13:36:21.570Z,12.37
2019-04-05T13:38:54.778Z,12.75
2019-04-05T13:41:15.207Z,12.76
2019-04-05T13:43:42.944Z,13.01
2019-04-05T13:46:21.004Z,13.14
2019-04-05T13:48:37.641Z,13.20
2019-04-05T13:51:07.094Z,12.97
2019-04-05T13:53:32.103Z,13.06
2019-04-05T13:55:57.983Z,13.52
2019-04-05T13:58:23.822Z,13.48
2019-04-05T14:00:49.936Z,13.47
2019-04-05T14:03:15.850Z,13.07
2019-04-05T14:05:41.817Z,13.59
2019-04-05T14:08:11.040Z,13.59
2019-04-05T14:10:35.408Z,14.34
2019-04-05T14:13:01.252Z,15.20
2019-04-05T14:15:31.280Z,14.85
2019-04-05T14:17:56.260Z,14.36
2019-04-05T14:20:24.461Z,14.50
2019-04-05T14:22:51.459Z,14.58
2019-04-05T14:25:17.707Z,14.73
2019-04-05T14:27:43.574Z,15.54
2019-04-05T14:30:09.627Z,15.33
2019-04-05T14:32:35.461Z,16.49
2019-04-05T14:35:01.412Z,15.62
2019-04-05T14:37:27.344Z,16.27
2019-04-05T14:39:53.202Z,15.83
2019-04-05T14:42:19.040Z,16.64
2019-04-05T14:44:44.914Z,16.64
2019-04-05T14:47:10.758Z,16.62
2019-04-05T14:49:36.750Z,16.91
2019-04-05T14:52:02.812Z,16.22
2019-04-05T14:54:30.096Z,15.82
2019-04-05T14:56:57.455Z,15.40
2019-04-05T14:59:23.488Z,15.58
2019-04-05T15:01:49.340Z,16.39
2019-04-05T15:04:15.206Z,15.37
2019-04-05T15:06:41.155Z,15.24
2019-04-05T15:09:07.017Z,15.04
2019-04-05T15:11:32.916Z,15.38
2019-04-05T15:13:58.763Z,15.57
2019-04-05T15:16:24.838Z,15.46
2019-04-05T15:18:50.891Z,15.61
2019-04-05T15:21:16.849Z,15.95
2019-04-05T15:23:45.431Z,16.22
2019-04-05T15:26:10.621Z,15.75
2019-04-05T15:28:38.944Z,15.72
2019-04-05T15:31:04.388Z,15.86
2019-04-05T15:33:30.295Z,15.95
2019-04-05T15:35:58.346Z,15.15
2019-04-05T15:38:24.072Z,15.00
2019-04-05T15:40:49.943Z,15.28
2019-04-05T15:43:15.907Z,15.87
2019-04-05T15:45:42.828Z,15.69
2019-04-05T15:48:08.870Z,16.15
2019-04-05T15:50:34.892Z,15.65
2019-04-05T15:53:02.302Z,15.21
2019-04-05T15:55:28.521Z,15.42
2019-04-05T15:57:54.508Z,15.20
2019-04-05T16:00:26.059Z,15.35
2019-04-05T16:02:52.103Z,15.31
2019-04-05T16:05:20.030Z,15.30
2019-04-05T16:07:46.095Z,15.18
2019-04-05T16:10:12.824Z,15.25
2019-04-05T16:12:38.892Z,15.18
2019-04-05T16:15:06.040Z,14.79
2019-04-05T16:17:31.924Z,14.71
2019-04-05T16:19:57.996Z,14.78
2019-04-05T16:22:31.302Z,14.96
2019-04-05T16:24:51.755Z,14.89
2019-04-05T16:27:17.682Z,14.66
2019-04-05T16:29:43.911Z,14.73
2019-04-05T16:32:09.825Z,14.52
2019-04-05T16:34:36.515Z,14.41
2019-04-05T16:37:02.909Z,14.42
2019-04-05T16:39:28.952Z,14.36
2019-04-05T16:42:02.998Z,14.47
2019-04-05T16:44:28.125Z,14.47
2019-04-05T16:46:54.281Z,14.47
2019-04-05T16:49:20.399Z,14.53
2019-04-05T16:51:48.438Z,14.51
2019-04-05T16:54:14.874Z,14.44
2019-04-05T16:56:41.105Z,14.39
2019-04-05T16:59:07.162Z,14.44
2019-04-05T17:01:33.014Z,14.51
2019-04-05T17:03:58.904Z,14.41
2019-04-05T17:06:24.803Z,14.41
2019-04-05T17:08:50.698Z,14.23
2019-04-05T17:11:16.899Z,14.25
2019-04-05T17:13:42.891Z,14.19
2019-04-05T17:16:08.880Z,14.12
2019-04-05T17:18:34.794Z,14.08
2019-04-05T17:21:00.712Z,14.08
2019-04-05T17:23:26.566Z,13.89
2019-04-05T17:25:52.460Z,13.89
2019-04-05T17:28:18.364Z,13.81
2019-04-05T17:30:44.234Z,13.84
2019-04-05T17:33:10.100Z,13.88
2019-04-05T17:35:36.094Z,13.74
2019-04-05T17:38:01.992Z,13.69
2019-04-05T17:40:27.890Z,13.75
2019-04-05T17:42:53.775Z,13.70
2019-04-05T17:45:19.688Z,13.71
2019-04-05T17:47:45.592Z,13.62
2019-04-05T17:50:15.279Z,13.54
2019-04-05T17:52:41.149Z,13.29
2019-04-05T17:55:07.333Z,13.18
2019-04-05T17:57:33.281Z,13.03
2019-04-05T17:59:59.222Z,13.02
2019-04-05T18:02:26.178Z,12.92
2019-04-05T18:04:52.026Z,12.78
2019-04-05T18:07:17.949Z,12.55
2019-04-05T18:09:43.779Z,12.34
2019-04-05T18:12:09.648Z,12.02
2019-04-05T18:14:35.486Z,12.05
2019-04-05T18:17:01.360Z,11.95
2019-04-05T18:19:27.271Z,11.90
2019-04-05T18:21:53.146Z,11.89
2019-04-05T18:24:18.999Z,11.86
2019-04-05T18:26:44.925Z,11.75
2019-04-05T18:29:10.763Z,11.83
2019-04-05T18:31:36.715Z,11.71
2019-04-05T18:34:02.649Z,11.51
2019-04-05T18:36:28.504Z,11.30
2019-04-05T18:38:54.343Z,11.40
2019-04-05T18:41:20.178Z,11.42
2019-04-05T18:43:46.029Z,11.45
2019-04-05T18:46:11.900Z,11.46
2019-04-05T18:48:37.734Z,11.34
2019-04-05T18:51:03.583Z,11.27
2019-04-05T18:53:37.485Z,11.14
2019-04-05T18:55:57.239Z,10.97
2019-04-05T18:58:23.073Z,10.86
2019-04-05T19:00:48.911Z,10.86
2019-04-05T19:03:14.758Z,10.91
2019-04-05T19:05:40.637Z,10.93
2019-04-05T19:08:06.860Z,10.58
2019-04-05T19:10:37.347Z,10.53
2019-04-05T19:13:00.491Z,10.58
2019-04-05T19:15:26.439Z,10.58
2019-04-05T19:17:52.268Z,10.51
2019-04-05T19:20:18.131Z,10.47
2019-04-05T19:22:44.003Z,10.55
2019-04-05T19:25:10.042Z,10.51
2019-04-05T19:27:35.916Z,10.48
2019-04-05T19:49:44.357Z,9.98
2019-04-05T19:52:10.220Z,9.97
2019-04-05T19:54:36.068Z,9.92
2019-04-05T19:57:01.949Z,9.88
2019-04-05T19:59:27.809Z,10.02
2019-04-05T20:01:53.774Z,9.68
2019-04-05T20:04:19.608Z,9.47
2019-04-05T20:06:45.476Z,9.45
2019-04-05T20:09:11.433Z,9.32
2019-04-05T20:11:37.290Z,9.27
2019-04-05T20:14:03.247Z,9.37
2019-04-05T20:16:29.097Z,9.35
2019-04-05T20:18:54.960Z,9.30
2019-04-05T20:21:20.808Z,9.34
2019-04-05T20:23:47.696Z,9.23
2019-04-05T20:26:13.734Z,9.21
2019-04-05T20:28:39.596Z,8.94
2019-04-05T20:31:05.445Z,8.78
2019-04-05T20:33:31.317Z,8.85
2019-04-05T20:35:57.195Z,8.79
2019-04-05T20:38:23.069Z,8.94
2019-04-05T20:40:48.913Z,8.96
2019-04-05T20:43:14.773Z,9.09
2019-04-05T20:45:40.660Z,8.97
2019-04-05T20:48:06.477Z,8.92
2019-04-05T20:50:32.325Z,8.63
2019-04-05T20:52:58.443Z,8.66
2019-04-05T20:55:24.329Z,8.64
2019-04-05T20:57:50.219Z,8.69
2019-04-05T21:00:16.769Z,8.64
2019-04-05T21:02:42.636Z,8.72
2019-04-05T21:05:08.604Z,8.58
2019-04-05T21:07:34.456Z,8.67
2019-04-05T21:10:00.343Z,8.51
2019-04-05T21:12:26.176Z,8.53
2019-04-05T21:14:52.026Z,8.47
2019-04-05T21:17:17.893Z,8.46
2019-04-05T21:19:43.741Z,8.29
2019-04-05T21:22:09.618Z,8.19
2019-04-05T21:24:36.482Z,8.15
2019-04-05T21:27:02.455Z,7.85
2019-04-05T21:29:28.301Z,7.67
2019-04-05T21:31:54.153Z,7.79
2019-04-05T21:34:19.976Z,7.85
2019-04-05T21:36:45.884Z,7.87
2019-04-05T21:39:11.713Z,7.98
2019-04-05T21:41:37.579Z,7.98
2019-04-05T21:44:03.426Z,7.87
2019-04-05T21:46:29.276Z,7.91
2019-04-05T21:48:55.133Z,7.48
2019-04-05T21:51:21.005Z,7.46
2019-04-05T21:53:47.718Z,7.36
2019-04-05T21:56:13.590Z,7.36
2019-04-05T21:58:39.455Z,7.37
2019-04-05T22:01:09.012Z,7.46
2019-04-05T22:03:35.069Z,7.54
2019-04-05T22:06:00.905Z,7.32
2019-04-05T22:08:26.776Z,7.32
2019-04-05T22:10:52.605Z,7.26
2019-04-05T22:13:18.448Z,7.17
2019-04-05T22:15:44.399Z,7.26
2019-04-05T22:18:10.258Z,7.22
2019-04-05T22:20:36.084Z,7.19
2019-04-05T22:23:01.936Z,7.20
2019-04-05T22:25:27.804Z,7.07
2019-04-05T22:27:53.651Z,6.87
2019-04-05T22:30:19.507Z,6.73
2019-04-05T22:32:45.355Z,6.80
2019-04-05T22:35:11.293Z,6.77
2019-04-05T22:37:37.139Z,6.56
2019-04-05T22:40:06.414Z,6.39
2019-04-05T22:42:32.261Z,6.27
2019-04-05T22:44:58.108Z,6.58
2019-04-05T22:47:23.933Z,6.63
2019-04-05T22:49:49.776Z,6.71
2019-04-05T22:52:15.640Z,6.62
2019-04-05T22:54:41.479Z,6.57
2019-04-05T22:57:07.364Z,6.40
2019-04-05T22:59:33.210Z,6.29
2019-04-05T23:01:59.036Z,6.41
2019-04-05T23:04:24.904Z,6.48
2019-04-05T23:06:50.725Z,6.38
2019-04-05T23:09:16.574Z,6.38
2019-04-05T23:11:42.429Z,6.23
2019-04-05T23:14:08.252Z,6.23
2019-04-05T23:16:34.092Z,6.19
2019-04-05T23:18:59.929Z,5.87
2019-04-05T23:21:25.770Z,5.56
2019-04-05T23:23:51.641Z,5.32
2019-04-05T23:26:17.489Z,5.32
2019-04-05T23:28:43.328Z,5.45
2019-04-05T23:31:09.155Z,5.61
2019-04-05T23:33:35.005Z,5.73
2019-04-05T23:36:00.956Z,5.92
2019-04-05T23:38:26.811Z,6.13
2019-04-05T23:40:52.630Z,6.01
2019-04-05T23:43:18.480Z,5.67
2019-04-05T23:45:44.338Z,5.58
2019-04-05T23:48:10.380Z,5.59
2019-04-05T23:50:36.248Z,5.63
2019-04-05T23:53:02.086Z,5.63
2019-04-05T23:55:33.079Z,5.77
2019-04-05T23:57:55.686Z,5.95
